Arnold Palmer Regional Airport
KLBE : now visible

Airfield :











YOU CAN JOIN US ON...

 
LOGIN :

Register | Disclaimer

   EN    FR    IT 

 









Legend :    VFR   Marginal VFR   IFR   Intensive IFR   Very Intensive IFR
Visi :
Ceiling :
>= 8 km
>= 3000ft
5 to 8 km
1000 to 3000 ft
1500m to 5 km
500 to 1000 ft
800 to 1500m
200 to 500 ft
< 800m
< 200 ft
Symbols :   Thunderstorms  Fog  Heavy snow  Heavy precipitations  Wind > 20 kt






- Airport Elevation : 1199 ft
- IATA code : LBE


KLBE - Arnold Palmer Regional

CURRENT METAR :
  • 081750Z 24006KT 10SM SCT030 BKN040 18/12 A2969

EXPIRED METARs :
  • 081550Z 25010KT 10SM OVC014 15/13 A2970

TAF KLBE
Valid from the 08 at 18:00 until the 09 at 18:00 UTC


081810Z 0818/0918 26010KT P6SM BKN040
FM090000 14004KT P6SM SKC
FM090800 19011KT 6SM -SHRA OVC050
FM091100 23013G21KT P6SM -SHRA BKN015
FM091500 26018G28KT P6SM VCSH BKN030



MET'MAP, your aeronautical weather chart ! - Copyright ORBIFLY December 2007 - Disclaimer

ORBIFLY MET'MAP TEAM :

Programming & Development : Alexandra Zaïnal
Concept & original design : Baudouin d'Aumeries
Assistance for programming : Marc-Olivier Méhu
Technical & hardware support : Manuel Goepfert

Contact : metmap@orbifly.com




SOURCES & CREDITS :

   NOAA       Earth
Advisory